UAL234 KSEA-PHKO
Flight info
| Callsign | UAL234 |
|---|---|
| Flight time | 5h 18m |
| Altitude | 38000 |
| Route | HAROB6 HQM C1418 SEDAR 40N136W HELOP/N0469F400 A332 AUNTI R463 APACK/N0473F410 ONOHI VECKI9 |
| Aircraft | B772/H-SDE2E3FGHIJ5LORVWXY/LB1D1 |
Departure
| Time | 2026-05-05 23:31 |
|---|---|
| Airport | Seattle–Tacoma International Airport (KSEA) |
Arrival
| Time | 2026-05-06 04:50 |
|---|---|
| Airport | Ellison Onizuka Kona International Airport at Keāhole (PHKO) |
| Time | Latitude | Longitude | Altitude | Speed | Heading |
|---|---|---|---|---|---|
| 2026-05-05 22:49 | 47.43804 | -122.30325 | 389 ft | 0 kts | 18° |
| 2026-05-05 23:17 | 47.43795 | -122.30329 | 389 ft | 4 kts | 18° |
| 2026-05-05 23:17 | 47.43777 | -122.30337 | 388 ft | 4 kts | 15° |
| 2026-05-05 23:17 | 47.43747 | -122.30350 | 387 ft | 4 kts | 12° |
| 2026-05-05 23:18 | 47.43727 | -122.30350 | 385 ft | 4 kts | 300° |
| 2026-05-05 23:18 | 47.43723 | -122.30328 | 385 ft | 4 kts | 262° |
| 2026-05-05 23:18 | 47.43728 | -122.30291 | 386 ft | 4 kts | 257° |
| 2026-05-05 23:18 | 47.43734 | -122.30252 | 386 ft | 4 kts | 257° |
| 2026-05-05 23:19 | 47.43741 | -122.30213 | 386 ft | 4 kts | 257° |
| 2026-05-05 23:19 | 47.43745 | -122.30185 | 387 ft | 1 kts | 257° |
| 2026-05-05 23:22 | 47.43744 | -122.30193 | 386 ft | 5 kts | 257° |
| 2026-05-05 23:22 | 47.43736 | -122.30243 | 386 ft | 5 kts | 257° |
| 2026-05-05 23:23 | 47.43728 | -122.30293 | 386 ft | 5 kts | 257° |
| 2026-05-05 23:23 | 47.43722 | -122.30346 | 385 ft | 8 kts | 264° |
| 2026-05-05 23:23 | 47.43720 | -122.30447 | 384 ft | 10 kts | 271° |
| 2026-05-05 23:23 | 47.43722 | -122.30542 | 383 ft | 9 kts | 271° |
| 2026-05-05 23:24 | 47.43751 | -122.30625 | 381 ft | 10 kts | 327° |
| 2026-05-05 23:24 | 47.43819 | -122.30638 | 383 ft | 10 kts | 1° |
| 2026-05-05 23:24 | 47.43887 | -122.30638 | 385 ft | 10 kts | 360° |
| 2026-05-05 23:24 | 47.43975 | -122.30638 | 387 ft | 18 kts | 0° |
| 2026-05-05 23:25 | 47.44101 | -122.30637 | 390 ft | 18 kts | 0° |
| 2026-05-05 23:25 | 47.44229 | -122.30635 | 393 ft | 18 kts | 0° |
| 2026-05-05 23:25 | 47.44357 | -122.30635 | 397 ft | 18 kts | 0° |
| 2026-05-05 23:25 | 47.44485 | -122.30634 | 400 ft | 18 kts | 0° |
| 2026-05-05 23:26 | 47.44613 | -122.30633 | 402 ft | 18 kts | 0° |
| 2026-05-05 23:26 | 47.44741 | -122.30632 | 408 ft | 18 kts | 0° |
| 2026-05-05 23:26 | 47.44869 | -122.30631 | 408 ft | 18 kts | 0° |
| 2026-05-05 23:26 | 47.44997 | -122.30629 | 411 ft | 18 kts | 0° |
| 2026-05-05 23:27 | 47.45125 | -122.30628 | 410 ft | 18 kts | 0° |
| 2026-05-05 23:27 | 47.45253 | -122.30627 | 415 ft | 18 kts | 0° |
| 2026-05-05 23:27 | 47.45381 | -122.30626 | 420 ft | 18 kts | 0° |
| 2026-05-05 23:27 | 47.45509 | -122.30625 | 424 ft | 18 kts | 0° |
| 2026-05-05 23:28 | 47.45636 | -122.30624 | 426 ft | 18 kts | 0° |
| 2026-05-05 23:28 | 47.45764 | -122.30622 | 428 ft | 18 kts | 1° |
| 2026-05-05 23:28 | 47.45891 | -122.30619 | 427 ft | 18 kts | 0° |
| 2026-05-05 23:28 | 47.46019 | -122.30618 | 433 ft | 18 kts | 0° |
| 2026-05-05 23:29 | 47.46148 | -122.30617 | 445 ft | 18 kts | 0° |
| 2026-05-05 23:29 | 47.46270 | -122.30616 | 437 ft | 13 kts | 0° |
| 2026-05-05 23:29 | 47.46334 | -122.30620 | 447 ft | 5 kts | 347° |
| 2026-05-05 23:29 | 47.46345 | -122.30627 | 447 ft | 0 kts | 335° |
| 2026-05-05 23:30 | 47.46365 | -122.30653 | 447 ft | 11 kts | 306° |
| 2026-05-05 23:30 | 47.46330 | -122.30766 | 434 ft | 17 kts | 193° |
| 2026-05-05 23:30 | 47.46029 | -122.30778 | 427 ft | 77 kts | 180° |
| 2026-05-05 23:31 | 47.45254 | -122.30788 | 416 ft | 144 kts | 179° |
| 2026-05-05 23:31 | 47.44136 | -122.30773 | 790 ft | 163 kts | 181° |
| 2026-05-05 23:31 | 47.42995 | -122.30815 | 1502 ft | 170 kts | 189° |
| 2026-05-05 23:31 | 47.41840 | -122.30953 | 2232 ft | 162 kts | 182° |
| 2026-05-05 23:32 | 47.40679 | -122.31029 | 2826 ft | 177 kts | 185° |
| 2026-05-05 23:32 | 47.39440 | -122.31072 | 3207 ft | 178 kts | 180° |
| 2026-05-05 23:32 | 47.38212 | -122.31049 | 3850 ft | 178 kts | 180° |
| 2026-05-05 23:32 | 47.37014 | -122.31049 | 4668 ft | 166 kts | 181° |
| 2026-05-05 23:33 | 47.35911 | -122.31067 | 5338 ft | 152 kts | 181° |
| 2026-05-05 23:33 | 47.34863 | -122.31093 | 5654 ft | 152 kts | 182° |
| 2026-05-05 23:33 | 47.33777 | -122.31125 | 5828 ft | 160 kts | 182° |
| 2026-05-05 23:33 | 47.32647 | -122.31162 | 6088 ft | 164 kts | 191° |
| 2026-05-05 23:34 | 47.31708 | -122.31996 | 6160 ft | 164 kts | 255° |
| 2026-05-05 23:34 | 47.31785 | -122.33654 | 6107 ft | 173 kts | 293° |
| 2026-05-05 23:34 | 47.31932 | -122.35468 | 6224 ft | 192 kts | 253° |
| 2026-05-05 23:34 | 47.31331 | -122.37317 | 6432 ft | 208 kts | 250° |
| 2026-05-05 23:35 | 47.31036 | -122.39483 | 6583 ft | 225 kts | 266° |
| 2026-05-05 23:35 | 47.30831 | -122.41862 | 6820 ft | 248 kts | 264° |
| 2026-05-05 23:35 | 47.30594 | -122.44499 | 7011 ft | 272 kts | 268° |
| 2026-05-05 23:35 | 47.30606 | -122.47317 | 7000 ft | 276 kts | 275° |
| 2026-05-05 23:36 | 47.30730 | -122.50139 | 6992 ft | 276 kts | 275° |
| 2026-05-05 23:36 | 47.30856 | -122.52983 | 7002 ft | 279 kts | 275° |
| 2026-05-05 23:36 | 47.30968 | -122.55838 | 7002 ft | 279 kts | 275° |
| 2026-05-05 23:36 | 47.31068 | -122.58688 | 7017 ft | 278 kts | 275° |
| 2026-05-05 23:37 | 47.31160 | -122.61555 | 7372 ft | 282 kts | 274° |
| 2026-05-05 23:37 | 47.31245 | -122.64455 | 8281 ft | 282 kts | 275° |
| 2026-05-05 23:37 | 47.31327 | -122.67359 | 9159 ft | 285 kts | 274° |
| 2026-05-05 23:37 | 47.31408 | -122.70308 | 9981 ft | 290 kts | 274° |
| 2026-05-05 23:38 | 47.31488 | -122.73284 | 10511 ft | 304 kts | 274° |
| 2026-05-05 23:38 | 47.31545 | -122.76524 | 10668 ft | 325 kts | 269° |
| 2026-05-05 23:38 | 47.30998 | -122.79857 | 10803 ft | 347 kts | 249° |
| 2026-05-05 23:38 | 47.30013 | -122.83190 | 11271 ft | 362 kts | 249° |
| 2026-05-05 23:39 | 47.29032 | -122.86649 | 12025 ft | 369 kts | 249° |
| 2026-05-05 23:39 | 47.28067 | -122.90170 | 12893 ft | 373 kts | 250° |
| 2026-05-05 23:39 | 47.27105 | -122.93740 | 13769 ft | 377 kts | 250° |
| 2026-05-05 23:39 | 47.26138 | -122.97354 | 14522 ft | 382 kts | 250° |
| 2026-05-05 23:40 | 47.25158 | -123.01013 | 15269 ft | 387 kts | 251° |
| 2026-05-05 23:40 | 47.24163 | -123.04721 | 16034 ft | 391 kts | 251° |
| 2026-05-05 23:40 | 47.23169 | -123.08476 | 16768 ft | 396 kts | 251° |
| 2026-05-05 23:40 | 47.22173 | -123.12279 | 17500 ft | 401 kts | 251° |
| 2026-05-05 23:41 | 47.21167 | -123.16130 | 18215 ft | 406 kts | 251° |
| 2026-05-05 23:41 | 47.20148 | -123.20024 | 18834 ft | 410 kts | 251° |
| 2026-05-05 23:41 | 47.19118 | -123.23948 | 19509 ft | 413 kts | 251° |
| 2026-05-05 23:41 | 47.18091 | -123.27851 | 20162 ft | 416 kts | 251° |
| 2026-05-05 23:42 | 47.17041 | -123.31831 | 20798 ft | 419 kts | 251° |
| 2026-05-05 23:42 | 47.15980 | -123.35845 | 21430 ft | 423 kts | 251° |
| 2026-05-05 23:42 | 47.14907 | -123.39896 | 22055 ft | 426 kts | 251° |
| 2026-05-05 23:42 | 47.13822 | -123.43985 | 22674 ft | 430 kts | 251° |
| 2026-05-05 23:43 | 47.12730 | -123.48091 | 23328 ft | 434 kts | 251° |
| 2026-05-05 23:43 | 47.11627 | -123.52231 | 23933 ft | 437 kts | 251° |
| 2026-05-05 23:43 | 47.10514 | -123.56402 | 24504 ft | 440 kts | 251° |
| 2026-05-05 23:43 | 47.09407 | -123.60544 | 25040 ft | 442 kts | 251° |
| 2026-05-05 23:44 | 47.08278 | -123.64759 | 25599 ft | 445 kts | 251° |
| 2026-05-05 23:44 | 47.07143 | -123.68991 | 26106 ft | 448 kts | 251° |
| 2026-05-05 23:44 | 47.05994 | -123.73270 | 26592 ft | 451 kts | 251° |
| 2026-05-05 23:44 | 47.04836 | -123.77570 | 27075 ft | 454 kts | 251° |
| 2026-05-05 23:45 | 47.03670 | -123.81895 | 27551 ft | 457 kts | 251° |
| 2026-05-05 23:45 | 47.02493 | -123.86250 | 28012 ft | 460 kts | 251° |
| 2026-05-05 23:45 | 47.01311 | -123.90619 | 28453 ft | 463 kts | 251° |
| 2026-05-05 23:45 | 47.00118 | -123.95019 | 28876 ft | 466 kts | 251° |
| 2026-05-05 23:46 | 46.98917 | -123.99441 | 29289 ft | 469 kts | 251° |
| 2026-05-05 23:46 | 46.97707 | -124.03886 | 29697 ft | 471 kts | 251° |
| 2026-05-05 23:46 | 46.96488 | -124.08358 | 30094 ft | 474 kts | 251° |
| 2026-05-05 23:46 | 46.95277 | -124.12790 | 30431 ft | 476 kts | 251° |
| 2026-05-05 23:47 | 46.93806 | -124.17153 | 30728 ft | 482 kts | 239° |
| 2026-05-05 23:47 | 46.91793 | -124.21126 | 31025 ft | 486 kts | 234° |
| 2026-05-05 23:47 | 46.89640 | -124.24971 | 31239 ft | 491 kts | 233° |
| 2026-05-05 23:47 | 46.87440 | -124.28824 | 31479 ft | 493 kts | 233° |
| 2026-05-05 23:48 | 46.85245 | -124.32695 | 31752 ft | 494 kts | 233° |
| 2026-05-05 23:48 | 46.83095 | -124.36546 | 32022 ft | 495 kts | 234° |
| 2026-05-05 23:48 | 46.80933 | -124.40477 | 32280 ft | 497 kts | 234° |
| 2026-05-05 23:48 | 46.78778 | -124.44436 | 32579 ft | 497 kts | 234° |
| 2026-05-05 23:49 | 46.76637 | -124.48389 | 32935 ft | 496 kts | 235° |
| 2026-05-05 23:49 | 46.74503 | -124.52336 | 33308 ft | 494 kts | 234° |
| 2026-05-05 23:49 | 46.72384 | -124.56249 | 33804 ft | 489 kts | 234° |
| 2026-05-05 23:49 | 46.70276 | -124.60133 | 34202 ft | 487 kts | 234° |
| 2026-05-05 23:50 | 46.68170 | -124.64008 | 34462 ft | 488 kts | 234° |
| 2026-05-05 23:50 | 46.66063 | -124.67877 | 34709 ft | 488 kts | 234° |
| 2026-05-05 23:50 | 46.63977 | -124.71701 | 34984 ft | 487 kts | 234° |
| 2026-05-05 23:50 | 46.61868 | -124.75559 | 35277 ft | 486 kts | 234° |
| 2026-05-05 23:51 | 46.59762 | -124.79406 | 35578 ft | 485 kts | 234° |
| 2026-05-05 23:51 | 46.57659 | -124.83242 | 35877 ft | 483 kts | 234° |
| 2026-05-05 23:51 | 46.55566 | -124.87054 | 36240 ft | 480 kts | 234° |
| 2026-05-05 23:51 | 46.53483 | -124.90843 | 36516 ft | 480 kts | 234° |
| 2026-05-05 23:52 | 46.51400 | -124.94627 | 36738 ft | 480 kts | 234° |
| 2026-05-05 23:52 | 46.49311 | -124.98416 | 36968 ft | 480 kts | 234° |
| 2026-05-05 23:52 | 46.47226 | -125.02194 | 37208 ft | 479 kts | 234° |
| 2026-05-05 23:52 | 46.45142 | -125.05965 | 37461 ft | 478 kts | 234° |
| 2026-05-05 23:53 | 46.43084 | -125.09684 | 37694 ft | 477 kts | 234° |
| 2026-05-05 23:53 | 46.41014 | -125.13422 | 38003 ft | 475 kts | 233° |
| 2026-05-05 23:53 | 46.36850 | -125.20919 | 38094 ft | 477 kts | 233° |
| 2026-05-05 23:54 | 46.32687 | -125.28393 | 38089 ft | 476 kts | 233° |
| 2026-05-05 23:54 | 46.28537 | -125.35826 | 38245 ft | 474 kts | 232° |
| 2026-05-05 23:55 | 46.26465 | -125.39537 | 37959 ft | 472 kts | 232° |
| 2026-05-05 23:55 | 46.24428 | -125.43166 | 38010 ft | 470 kts | 233° |
| 2026-05-05 23:55 | 46.20292 | -125.50535 | 38089 ft | 475 kts | 233° |
| 2026-05-05 23:56 | 46.16106 | -125.57976 | 38096 ft | 478 kts | 233° |
| 2026-05-05 23:56 | 46.11894 | -125.65441 | 38087 ft | 480 kts | 233° |
| 2026-05-05 23:57 | 46.07678 | -125.72891 | 38089 ft | 479 kts | 233° |
| 2026-05-05 23:57 | 46.03490 | -125.80271 | 38089 ft | 478 kts | 232° |
| 2026-05-05 23:58 | 45.99284 | -125.87666 | 38092 ft | 477 kts | 232° |
| 2026-05-05 23:58 | 45.95069 | -125.95059 | 38087 ft | 476 kts | 232° |
| 2026-05-05 23:59 | 45.90873 | -126.02395 | 38089 ft | 474 kts | 232° |
| 2026-05-05 23:59 | 45.86707 | -126.09659 | 38088 ft | 473 kts | 232° |
| 2026-05-06 00:00 | 45.82529 | -126.16929 | 38081 ft | 472 kts | 232° |
| 2026-05-06 00:00 | 45.78354 | -126.24174 | 38094 ft | 471 kts | 232° |
| 2026-05-06 00:01 | 45.74178 | -126.31401 | 38092 ft | 470 kts | 232° |
| 2026-05-06 00:01 | 45.70010 | -126.38596 | 38087 ft | 469 kts | 232° |
| 2026-05-06 00:02 | 45.65841 | -126.45775 | 38093 ft | 468 kts | 231° |
| 2026-05-06 00:02 | 45.61704 | -126.52881 | 38085 ft | 468 kts | 231° |
| 2026-05-06 00:03 | 45.57536 | -126.60023 | 38078 ft | 468 kts | 231° |
| 2026-05-06 00:03 | 45.53360 | -126.67163 | 38096 ft | 469 kts | 231° |
| 2026-05-06 00:04 | 45.49246 | -126.74462 | 38094 ft | 473 kts | 235° |
| 2026-05-06 00:04 | 45.45384 | -126.82115 | 38092 ft | 478 kts | 235° |
| 2026-05-06 00:05 | 45.40211 | -126.92410 | 38093 ft | 482 kts | 235° |
| 2026-05-06 00:06 | 45.36288 | -127.00155 | 38093 ft | 485 kts | 235° |
| 2026-05-06 00:06 | 45.32319 | -127.07948 | 38099 ft | 487 kts | 235° |
| 2026-05-06 00:07 | 45.27652 | -127.17077 | 38096 ft | 490 kts | 235° |
| 2026-05-06 00:07 | 45.24317 | -127.23586 | 38089 ft | 491 kts | 234° |
| 2026-05-06 00:08 | 45.20297 | -127.31411 | 38093 ft | 491 kts | 234° |
| 2026-05-06 00:08 | 45.16265 | -127.39240 | 38093 ft | 491 kts | 234° |
| 2026-05-06 00:09 | 45.12235 | -127.47043 | 38095 ft | 491 kts | 234° |
| 2026-05-06 00:09 | 45.08200 | -127.54835 | 38097 ft | 490 kts | 234° |
| 2026-05-06 00:10 | 45.04194 | -127.62548 | 38093 ft | 489 kts | 234° |
| 2026-05-06 00:10 | 45.00157 | -127.70301 | 38098 ft | 488 kts | 234° |
| 2026-05-06 00:11 | 44.96131 | -127.78011 | 38092 ft | 487 kts | 234° |
| 2026-05-06 00:11 | 44.92107 | -127.85699 | 38099 ft | 486 kts | 234° |
| 2026-05-06 00:12 | 44.88085 | -127.93360 | 38098 ft | 486 kts | 234° |
| 2026-05-06 00:12 | 44.84086 | -128.00957 | 38101 ft | 485 kts | 233° |
| 2026-05-06 00:13 | 44.80062 | -128.08586 | 38106 ft | 485 kts | 233° |
| 2026-05-06 00:13 | 44.76036 | -128.16193 | 38099 ft | 484 kts | 233° |
| 2026-05-06 00:14 | 44.72013 | -128.23776 | 38103 ft | 484 kts | 233° |
| 2026-05-06 00:14 | 44.67977 | -128.31367 | 38091 ft | 484 kts | 233° |
| 2026-05-06 00:15 | 44.63948 | -128.38925 | 38104 ft | 483 kts | 233° |
| 2026-05-06 00:15 | 44.59916 | -128.46458 | 38108 ft | 483 kts | 233° |
| 2026-05-06 00:16 | 44.55878 | -128.53988 | 38110 ft | 483 kts | 233° |
| 2026-05-06 00:16 | 44.51862 | -128.61461 | 38115 ft | 483 kts | 233° |
| 2026-05-06 00:17 | 44.47809 | -128.68981 | 38112 ft | 482 kts | 232° |
| 2026-05-06 00:17 | 44.43764 | -128.76468 | 38110 ft | 481 kts | 232° |
| 2026-05-06 00:18 | 44.39739 | -128.83898 | 38117 ft | 481 kts | 232° |
| 2026-05-06 00:18 | 44.35698 | -128.91337 | 38111 ft | 480 kts | 232° |
| 2026-05-06 00:19 | 44.31661 | -128.98751 | 38119 ft | 479 kts | 232° |
| 2026-05-06 00:19 | 44.27621 | -129.06153 | 38123 ft | 478 kts | 232° |
| 2026-05-06 00:20 | 44.23598 | -129.13504 | 38126 ft | 478 kts | 232° |
| 2026-05-06 00:20 | 44.19552 | -129.20878 | 38125 ft | 477 kts | 232° |
| 2026-05-06 00:21 | 44.15507 | -129.28230 | 38127 ft | 477 kts | 232° |
| 2026-05-06 00:21 | 44.11486 | -129.35521 | 38132 ft | 477 kts | 231° |
| 2026-05-06 00:22 | 44.07436 | -129.42847 | 38130 ft | 478 kts | 231° |
| 2026-05-06 00:22 | 44.03381 | -129.50162 | 38137 ft | 477 kts | 231° |
| 2026-05-06 00:23 | 43.99321 | -129.57469 | 38139 ft | 477 kts | 231° |
| 2026-05-06 00:23 | 43.95257 | -129.64763 | 38142 ft | 477 kts | 231° |
| 2026-05-06 00:24 | 43.91189 | -129.72048 | 38141 ft | 477 kts | 231° |
| 2026-05-06 00:24 | 43.87120 | -129.79317 | 38142 ft | 477 kts | 231° |
| 2026-05-06 00:25 | 43.83063 | -129.86543 | 38148 ft | 477 kts | 231° |
| 2026-05-06 00:25 | 43.78991 | -129.93781 | 38145 ft | 476 kts | 231° |
| 2026-05-06 00:26 | 43.74913 | -130.01010 | 38145 ft | 476 kts | 231° |
| 2026-05-06 00:26 | 43.70827 | -130.08236 | 38146 ft | 477 kts | 231° |
| 2026-05-06 00:27 | 43.66762 | -130.15409 | 38156 ft | 477 kts | 231° |
| 2026-05-06 00:27 | 43.62660 | -130.22626 | 38158 ft | 477 kts | 231° |
| 2026-05-06 00:28 | 43.58554 | -130.29833 | 38157 ft | 478 kts | 231° |
| 2026-05-06 00:28 | 43.54438 | -130.37042 | 38165 ft | 477 kts | 231° |
| 2026-05-06 00:29 | 43.50324 | -130.44227 | 38167 ft | 476 kts | 230° |
| 2026-05-06 00:29 | 43.46245 | -130.51335 | 38169 ft | 476 kts | 230° |
| 2026-05-06 00:30 | 43.42140 | -130.58473 | 38174 ft | 475 kts | 230° |
| 2026-05-06 00:30 | 43.38036 | -130.65589 | 38168 ft | 474 kts | 230° |
| 2026-05-06 00:31 | 43.33937 | -130.72679 | 38174 ft | 473 kts | 230° |
| 2026-05-06 00:31 | 43.29831 | -130.79765 | 38185 ft | 473 kts | 230° |
| 2026-05-06 00:32 | 43.25752 | -130.86787 | 38179 ft | 473 kts | 230° |
| 2026-05-06 00:32 | 43.21651 | -130.93830 | 38184 ft | 472 kts | 230° |
| 2026-05-06 00:33 | 43.17545 | -131.00864 | 38188 ft | 472 kts | 230° |
| 2026-05-06 00:33 | 43.13433 | -131.07893 | 38194 ft | 472 kts | 230° |
| 2026-05-06 00:34 | 43.09347 | -131.14860 | 38189 ft | 472 kts | 230° |
| 2026-05-06 00:34 | 43.05236 | -131.21853 | 38193 ft | 471 kts | 230° |
| 2026-05-06 00:35 | 43.01120 | -131.28838 | 38199 ft | 471 kts | 230° |
| 2026-05-06 00:35 | 42.97004 | -131.35806 | 38191 ft | 470 kts | 230° |
| 2026-05-06 00:36 | 42.92897 | -131.42743 | 38198 ft | 470 kts | 230° |
| 2026-05-06 00:36 | 42.88785 | -131.49673 | 38201 ft | 469 kts | 229° |
| 2026-05-06 00:37 | 42.84694 | -131.56550 | 38210 ft | 468 kts | 229° |
| 2026-05-06 00:37 | 42.80591 | -131.63433 | 38204 ft | 467 kts | 229° |
| 2026-05-06 00:38 | 42.76488 | -131.70298 | 38206 ft | 467 kts | 229° |
| 2026-05-06 00:38 | 42.72389 | -131.77142 | 38216 ft | 466 kts | 229° |
| 2026-05-06 00:39 | 42.68294 | -131.83962 | 38213 ft | 465 kts | 229° |
| 2026-05-06 00:39 | 42.64196 | -131.90771 | 38212 ft | 465 kts | 229° |
| 2026-05-06 00:40 | 42.60125 | -131.97520 | 38217 ft | 465 kts | 229° |
| 2026-05-06 00:40 | 42.56025 | -132.04302 | 38220 ft | 465 kts | 229° |
| 2026-05-06 00:41 | 42.51913 | -132.11088 | 38220 ft | 465 kts | 229° |
| 2026-05-06 00:41 | 42.47802 | -132.17858 | 38230 ft | 465 kts | 229° |
| 2026-05-06 00:42 | 42.43684 | -132.24624 | 38222 ft | 465 kts | 229° |
| 2026-05-06 00:42 | 42.39563 | -132.31378 | 38226 ft | 465 kts | 229° |
| 2026-05-06 00:43 | 42.35457 | -132.38094 | 38231 ft | 465 kts | 229° |
| 2026-05-06 00:43 | 42.31323 | -132.44839 | 38234 ft | 465 kts | 229° |
| 2026-05-06 00:44 | 42.27189 | -132.51569 | 38229 ft | 465 kts | 229° |
| 2026-05-06 00:44 | 42.23045 | -132.58300 | 38234 ft | 465 kts | 229° |
| 2026-05-06 00:45 | 42.18933 | -132.64965 | 38239 ft | 466 kts | 229° |
| 2026-05-06 00:45 | 42.14778 | -132.71682 | 38242 ft | 466 kts | 229° |
| 2026-05-06 00:46 | 42.10612 | -132.78404 | 38240 ft | 466 kts | 229° |
| 2026-05-06 00:46 | 42.06439 | -132.85121 | 38244 ft | 467 kts | 229° |
| 2026-05-06 00:47 | 42.02291 | -132.91783 | 38248 ft | 467 kts | 229° |
| 2026-05-06 00:47 | 41.98111 | -132.98482 | 38248 ft | 468 kts | 229° |
| 2026-05-06 00:48 | 41.93921 | -133.05182 | 38250 ft | 468 kts | 228° |
| 2026-05-06 00:48 | 41.89723 | -133.11878 | 38247 ft | 468 kts | 229° |
| 2026-05-06 00:49 | 41.85520 | -133.18569 | 38251 ft | 469 kts | 228° |
| 2026-05-06 00:49 | 41.81308 | -133.25260 | 38256 ft | 469 kts | 228° |
| 2026-05-06 00:50 | 41.77091 | -133.31941 | 38256 ft | 470 kts | 229° |
| 2026-05-06 00:50 | 41.72862 | -133.38628 | 38260 ft | 470 kts | 228° |
| 2026-05-06 00:51 | 41.68622 | -133.45317 | 38261 ft | 471 kts | 228° |
| 2026-05-06 00:51 | 41.64404 | -133.51957 | 38263 ft | 471 kts | 229° |
| 2026-05-06 00:52 | 41.60150 | -133.58638 | 38267 ft | 472 kts | 229° |
| 2026-05-06 00:52 | 41.55887 | -133.65320 | 38261 ft | 472 kts | 229° |
| 2026-05-06 00:53 | 41.51615 | -133.71999 | 38266 ft | 473 kts | 229° |
| 2026-05-06 00:53 | 41.47337 | -133.78673 | 38268 ft | 473 kts | 229° |
| 2026-05-06 00:54 | 41.43080 | -133.85301 | 38274 ft | 474 kts | 229° |
| 2026-05-06 00:54 | 41.38789 | -133.91966 | 38273 ft | 474 kts | 229° |
| 2026-05-06 00:55 | 41.34483 | -133.98638 | 38276 ft | 474 kts | 229° |
| 2026-05-06 00:55 | 41.30177 | -134.05298 | 38274 ft | 475 kts | 229° |
| 2026-05-06 00:56 | 41.25867 | -134.11948 | 38280 ft | 475 kts | 229° |
| 2026-05-06 00:56 | 41.22279 | -134.17475 | 38280 ft | 475 kts | 229° |
| 2026-05-06 00:57 | 41.17256 | -134.25192 | 38274 ft | 475 kts | 229° |
| 2026-05-06 00:57 | 41.12934 | -134.31817 | 38280 ft | 474 kts | 229° |
| 2026-05-06 00:58 | 41.08612 | -134.38427 | 38279 ft | 474 kts | 229° |
| 2026-05-06 00:58 | 41.05016 | -134.43917 | 38283 ft | 474 kts | 229° |
| 2026-05-06 00:59 | 41.00678 | -134.50520 | 38284 ft | 474 kts | 229° |
| 2026-05-06 00:59 | 40.96344 | -134.57110 | 38289 ft | 475 kts | 229° |
| 2026-05-06 01:00 | 40.92002 | -134.63699 | 38288 ft | 475 kts | 229° |
| 2026-05-06 01:00 | 40.87647 | -134.70290 | 38291 ft | 476 kts | 229° |
| 2026-05-06 01:01 | 40.83312 | -134.76834 | 38290 ft | 476 kts | 229° |
| 2026-05-06 01:01 | 40.78953 | -134.83404 | 38292 ft | 475 kts | 229° |
| 2026-05-06 01:02 | 40.74588 | -134.89968 | 38291 ft | 475 kts | 229° |
| 2026-05-06 01:02 | 40.70225 | -134.96512 | 38294 ft | 475 kts | 229° |
| 2026-05-06 01:03 | 40.65860 | -135.03050 | 38293 ft | 475 kts | 229° |
| 2026-05-06 01:03 | 40.61520 | -135.09535 | 38293 ft | 474 kts | 229° |
| 2026-05-06 01:04 | 40.57151 | -135.16048 | 38294 ft | 474 kts | 229° |
| 2026-05-06 01:04 | 40.52783 | -135.22546 | 38299 ft | 474 kts | 229° |
| 2026-05-06 01:05 | 40.48404 | -135.29046 | 38296 ft | 474 kts | 229° |
| 2026-05-06 01:05 | 40.44021 | -135.35539 | 38305 ft | 475 kts | 229° |
| 2026-05-06 01:06 | 40.39629 | -135.42030 | 38170 ft | 476 kts | 228° |
| 2026-05-06 01:06 | 40.35305 | -135.48407 | 38258 ft | 469 kts | 229° |
| 2026-05-06 01:07 | 40.30952 | -135.54814 | 38300 ft | 472 kts | 229° |
| 2026-05-06 01:07 | 40.26573 | -135.61247 | 38308 ft | 474 kts | 229° |
| 2026-05-06 01:08 | 40.22162 | -135.67713 | 38306 ft | 476 kts | 229° |
| 2026-05-06 01:08 | 40.17740 | -135.74180 | 38307 ft | 477 kts | 229° |
| 2026-05-06 01:09 | 40.13304 | -135.80656 | 38299 ft | 478 kts | 229° |
| 2026-05-06 01:09 | 40.08884 | -135.87095 | 38308 ft | 479 kts | 229° |
| 2026-05-06 01:10 | 40.04430 | -135.93569 | 38308 ft | 479 kts | 229° |
| 2026-05-06 01:10 | 39.99971 | -136.00040 | 38310 ft | 479 kts | 229° |
| 2026-05-06 01:11 | 39.95456 | -136.06444 | 38307 ft | 479 kts | 228° |
| 2026-05-06 01:11 | 39.90898 | -136.12800 | 38306 ft | 479 kts | 228° |
| 2026-05-06 01:12 | 39.86349 | -136.19141 | 38306 ft | 479 kts | 228° |
| 2026-05-06 01:12 | 39.81833 | -136.25442 | 38309 ft | 479 kts | 228° |
| 2026-05-06 01:13 | 39.77284 | -136.31784 | 38306 ft | 479 kts | 229° |
| 2026-05-06 01:13 | 39.72731 | -136.38120 | 38311 ft | 479 kts | 229° |
| 2026-05-06 01:14 | 39.65905 | -136.47593 | 38310 ft | 479 kts | 229° |
| 2026-05-06 01:14 | 39.61343 | -136.53908 | 38314 ft | 479 kts | 229° |
| 2026-05-06 01:15 | 39.56805 | -136.60176 | 38315 ft | 480 kts | 229° |
| 2026-05-06 01:15 | 39.52233 | -136.66477 | 38315 ft | 480 kts | 229° |
| 2026-05-06 01:16 | 39.47645 | -136.72788 | 38314 ft | 480 kts | 229° |
| 2026-05-06 01:16 | 39.43055 | -136.79089 | 38311 ft | 481 kts | 229° |
| 2026-05-06 01:17 | 39.38463 | -136.85380 | 38315 ft | 481 kts | 229° |
| 2026-05-06 01:17 | 39.33865 | -136.91665 | 38312 ft | 481 kts | 229° |
| 2026-05-06 01:18 | 39.29292 | -136.97904 | 38309 ft | 481 kts | 229° |
| 2026-05-06 01:18 | 39.24686 | -137.04176 | 38321 ft | 481 kts | 229° |
| 2026-05-06 01:19 | 39.20074 | -137.10442 | 38314 ft | 481 kts | 229° |
| 2026-05-06 01:19 | 39.15464 | -137.16692 | 38352 ft | 481 kts | 229° |
| 2026-05-06 01:20 | 39.13155 | -137.19822 | 38192 ft | 481 kts | 226° |
| 2026-05-06 01:20 | 39.10852 | -137.22934 | 38122 ft | 474 kts | 229° |
| 2026-05-06 01:20 | 39.08589 | -137.25987 | 38224 ft | 471 kts | 229° |
| 2026-05-06 01:20 | 39.06354 | -137.29005 | 38274 ft | 472 kts | 229° |
| 2026-05-06 01:21 | 39.01808 | -137.35134 | 38315 ft | 475 kts | 229° |
| 2026-05-06 01:21 | 38.97231 | -137.41294 | 38322 ft | 477 kts | 229° |
| 2026-05-06 01:22 | 38.92625 | -137.47479 | 38322 ft | 479 kts | 229° |
| 2026-05-06 01:22 | 38.87999 | -137.53674 | 38317 ft | 480 kts | 229° |
| 2026-05-06 01:23 | 38.83401 | -137.59821 | 38315 ft | 481 kts | 229° |
| 2026-05-06 01:23 | 38.78767 | -137.66005 | 38312 ft | 480 kts | 229° |
| 2026-05-06 01:24 | 38.74127 | -137.72184 | 38314 ft | 480 kts | 229° |
| 2026-05-06 01:24 | 38.69496 | -137.78339 | 38315 ft | 479 kts | 229° |
| 2026-05-06 01:25 | 38.64899 | -137.84436 | 38315 ft | 479 kts | 229° |
| 2026-05-06 01:25 | 38.60271 | -137.90563 | 38315 ft | 478 kts | 229° |
| 2026-05-06 01:26 | 38.55624 | -137.96702 | 38304 ft | 478 kts | 229° |
| 2026-05-06 01:26 | 38.51021 | -138.02774 | 38397 ft | 480 kts | 227° |
| 2026-05-06 01:27 | 38.46350 | -138.08922 | 38322 ft | 483 kts | 227° |
| 2026-05-06 01:27 | 38.41661 | -138.15079 | 38317 ft | 484 kts | 227° |
| 2026-05-06 01:28 | 38.36962 | -138.21238 | 38315 ft | 483 kts | 227° |
| 2026-05-06 01:28 | 38.32267 | -138.27378 | 38318 ft | 483 kts | 227° |
| 2026-05-06 01:29 | 38.27603 | -138.33467 | 38317 ft | 482 kts | 226° |
| 2026-05-06 01:29 | 38.22926 | -138.39563 | 38314 ft | 481 kts | 226° |
| 2026-05-06 01:30 | 38.18244 | -138.45650 | 38314 ft | 481 kts | 226° |
| 2026-05-06 01:30 | 38.13567 | -138.51721 | 38321 ft | 480 kts | 226° |
| 2026-05-06 01:31 | 38.08889 | -138.57781 | 38316 ft | 480 kts | 226° |
| 2026-05-06 01:31 | 38.04242 | -138.63789 | 38312 ft | 479 kts | 226° |
| 2026-05-06 01:32 | 37.99570 | -138.69819 | 38323 ft | 479 kts | 226° |
| 2026-05-06 01:32 | 37.94894 | -138.75840 | 38312 ft | 478 kts | 226° |
| 2026-05-06 01:33 | 37.90222 | -138.81846 | 38317 ft | 478 kts | 225° |
| 2026-05-06 01:33 | 37.85560 | -138.87827 | 38314 ft | 476 kts | 225° |
| 2026-05-06 01:34 | 37.80910 | -138.93782 | 38314 ft | 475 kts | 225° |
| 2026-05-06 01:34 | 37.76256 | -138.99734 | 38308 ft | 475 kts | 225° |
| 2026-05-06 01:35 | 37.71611 | -139.05657 | 38319 ft | 474 kts | 225° |
| 2026-05-06 01:35 | 37.66988 | -139.11541 | 38316 ft | 474 kts | 225° |
| 2026-05-06 01:36 | 37.62343 | -139.17445 | 38319 ft | 474 kts | 225° |
| 2026-05-06 01:36 | 37.57691 | -139.23345 | 38312 ft | 473 kts | 225° |
| 2026-05-06 01:37 | 37.53045 | -139.29228 | 38316 ft | 473 kts | 225° |
| 2026-05-06 01:37 | 37.48408 | -139.35089 | 38313 ft | 472 kts | 225° |
| 2026-05-06 01:38 | 37.43769 | -139.40940 | 38310 ft | 471 kts | 225° |
| 2026-05-06 01:38 | 37.39168 | -139.46733 | 38313 ft | 471 kts | 225° |
| 2026-05-06 01:39 | 37.34535 | -139.52555 | 38313 ft | 470 kts | 225° |
| 2026-05-06 01:39 | 37.29904 | -139.58364 | 38313 ft | 470 kts | 225° |
| 2026-05-06 01:40 | 37.27584 | -139.61269 | 38146 ft | 470 kts | 228° |
| 2026-05-06 01:40 | 37.25276 | -139.64156 | 38236 ft | 468 kts | 229° |
| 2026-05-06 01:40 | 37.20669 | -139.69916 | 38307 ft | 467 kts | 229° |
| 2026-05-06 01:41 | 37.16053 | -139.75677 | 38308 ft | 468 kts | 229° |
| 2026-05-06 01:41 | 37.11454 | -139.81404 | 38304 ft | 469 kts | 229° |
| 2026-05-06 01:42 | 37.07295 | -139.86574 | 38312 ft | 469 kts | 229° |
| 2026-05-06 01:42 | 37.02661 | -139.92324 | 38305 ft | 469 kts | 229° |
| 2026-05-06 01:43 | 36.98024 | -139.98068 | 38311 ft | 469 kts | 228° |
| 2026-05-06 01:43 | 36.93387 | -140.03801 | 38300 ft | 468 kts | 228° |
| 2026-05-06 01:44 | 36.88757 | -140.09515 | 38301 ft | 467 kts | 228° |
| 2026-05-06 01:44 | 36.84127 | -140.15219 | 38304 ft | 466 kts | 228° |
| 2026-05-06 01:45 | 36.79507 | -140.20901 | 38311 ft | 466 kts | 228° |
| 2026-05-06 01:45 | 36.74927 | -140.26523 | 38301 ft | 465 kts | 228° |
| 2026-05-06 01:46 | 36.70318 | -140.32172 | 38299 ft | 464 kts | 228° |
| 2026-05-06 01:46 | 36.65707 | -140.37812 | 38288 ft | 465 kts | 228° |
| 2026-05-06 01:47 | 36.61082 | -140.43460 | 38307 ft | 465 kts | 227° |
| 2026-05-06 01:47 | 36.56452 | -140.49103 | 38299 ft | 466 kts | 227° |
| 2026-05-06 01:48 | 36.51825 | -140.54733 | 38293 ft | 466 kts | 227° |
| 2026-05-06 01:48 | 36.47209 | -140.60341 | 38302 ft | 467 kts | 227° |
| 2026-05-06 01:49 | 36.42552 | -140.65987 | 38298 ft | 467 kts | 227° |
| 2026-05-06 01:49 | 36.37889 | -140.71630 | 38292 ft | 468 kts | 227° |
| 2026-05-06 01:50 | 36.33226 | -140.77265 | 38299 ft | 468 kts | 227° |
| 2026-05-06 01:50 | 36.28574 | -140.82875 | 38297 ft | 469 kts | 227° |
| 2026-05-06 01:51 | 36.23890 | -140.88516 | 38288 ft | 470 kts | 227° |
| 2026-05-06 01:51 | 36.19190 | -140.94163 | 38293 ft | 471 kts | 227° |
| 2026-05-06 01:52 | 36.14477 | -140.99817 | 38293 ft | 472 kts | 227° |
| 2026-05-06 01:52 | 36.09787 | -141.05434 | 38295 ft | 472 kts | 227° |
| 2026-05-06 01:53 | 36.05060 | -141.11085 | 38296 ft | 472 kts | 227° |
| 2026-05-06 01:53 | 36.00328 | -141.16732 | 38282 ft | 472 kts | 227° |
| 2026-05-06 01:54 | 35.95590 | -141.22375 | 38291 ft | 473 kts | 227° |
| 2026-05-06 01:54 | 35.90853 | -141.28009 | 38290 ft | 473 kts | 227° |
| 2026-05-06 01:55 | 35.86137 | -141.33608 | 38293 ft | 473 kts | 227° |
| 2026-05-06 01:55 | 35.81398 | -141.39223 | 38287 ft | 471 kts | 227° |
| 2026-05-06 01:56 | 35.76676 | -141.44808 | 38295 ft | 469 kts | 227° |
| 2026-05-06 01:56 | 35.71975 | -141.50359 | 38282 ft | 468 kts | 227° |
| 2026-05-06 01:57 | 35.67272 | -141.55906 | 38289 ft | 468 kts | 227° |
| 2026-05-06 01:57 | 35.62564 | -141.61446 | 38292 ft | 468 kts | 227° |
| 2026-05-06 01:58 | 35.57889 | -141.66939 | 38297 ft | 468 kts | 227° |
| 2026-05-06 01:58 | 35.53170 | -141.72475 | 38301 ft | 470 kts | 227° |
| 2026-05-06 01:59 | 35.48432 | -141.78023 | 38295 ft | 471 kts | 227° |
| 2026-05-06 01:59 | 35.43685 | -141.83569 | 38294 ft | 471 kts | 227° |
| 2026-05-06 02:00 | 35.38939 | -141.89107 | 38293 ft | 470 kts | 227° |
| 2026-05-06 02:00 | 35.34231 | -141.94589 | 38293 ft | 469 kts | 227° |
| 2026-05-06 02:01 | 35.29501 | -142.00092 | 38292 ft | 468 kts | 227° |
| 2026-05-06 02:01 | 35.24782 | -142.05572 | 38298 ft | 467 kts | 226° |
| 2026-05-06 02:02 | 35.20094 | -142.11005 | 38293 ft | 466 kts | 226° |
| 2026-05-06 02:02 | 35.15372 | -142.16470 | 38288 ft | 467 kts | 226° |
| 2026-05-06 02:03 | 35.10646 | -142.21931 | 38289 ft | 468 kts | 226° |
| 2026-05-06 02:03 | 35.05901 | -142.27405 | 38290 ft | 470 kts | 226° |
| 2026-05-06 02:04 | 35.01169 | -142.32858 | 38289 ft | 470 kts | 226° |
| 2026-05-06 02:04 | 34.96832 | -142.38809 | 38290 ft | 469 kts | 233° |
| 2026-05-06 02:05 | 34.92740 | -142.45001 | 38285 ft | 469 kts | 233° |
| 2026-05-06 02:05 | 34.88628 | -142.51185 | 38280 ft | 469 kts | 233° |
| 2026-05-06 02:06 | 34.84496 | -142.57357 | 38289 ft | 469 kts | 232° |
| 2026-05-06 02:06 | 34.80387 | -142.63468 | 38288 ft | 469 kts | 232° |
| 2026-05-06 02:07 | 34.76249 | -142.69613 | 38284 ft | 469 kts | 232° |
| 2026-05-06 02:07 | 34.72118 | -142.75737 | 38282 ft | 468 kts | 232° |
| 2026-05-06 02:08 | 34.67988 | -142.81849 | 38284 ft | 467 kts | 232° |
| 2026-05-06 02:08 | 34.63872 | -142.87932 | 38261 ft | 465 kts | 232° |
| 2026-05-06 02:09 | 34.59783 | -142.93964 | 38273 ft | 465 kts | 232° |
| 2026-05-06 02:09 | 34.55664 | -143.00031 | 38282 ft | 465 kts | 232° |
| 2026-05-06 02:10 | 34.51545 | -143.06087 | 38283 ft | 465 kts | 232° |
| 2026-05-06 02:10 | 34.47421 | -143.12138 | 38270 ft | 465 kts | 232° |
| 2026-05-06 02:11 | 34.43287 | -143.18195 | 38280 ft | 466 kts | 232° |
| 2026-05-06 02:11 | 34.39169 | -143.24219 | 38272 ft | 467 kts | 232° |
| 2026-05-06 02:12 | 34.35019 | -143.30278 | 38260 ft | 467 kts | 232° |
| 2026-05-06 02:12 | 34.30860 | -143.36340 | 38270 ft | 467 kts | 232° |
| 2026-05-06 02:13 | 34.26702 | -143.42391 | 38269 ft | 467 kts | 232° |
| 2026-05-06 02:13 | 34.22542 | -143.48433 | 38261 ft | 468 kts | 232° |
| 2026-05-06 02:14 | 34.18370 | -143.54483 | 38269 ft | 469 kts | 232° |
| 2026-05-06 02:14 | 34.14204 | -143.60514 | 38264 ft | 470 kts | 232° |
| 2026-05-06 02:15 | 34.10003 | -143.66586 | 38265 ft | 471 kts | 232° |
| 2026-05-06 02:15 | 34.05821 | -143.72620 | 38257 ft | 472 kts | 232° |
| 2026-05-06 02:16 | 34.01609 | -143.78686 | 38232 ft | 471 kts | 232° |
| 2026-05-06 02:16 | 33.97410 | -143.84723 | 38219 ft | 469 kts | 232° |
| 2026-05-06 02:17 | 33.93214 | -143.90747 | 38212 ft | 468 kts | 232° |
| 2026-05-06 02:17 | 33.89027 | -143.96747 | 38225 ft | 467 kts | 232° |
| 2026-05-06 02:18 | 33.85546 | -144.01728 | 38232 ft | 467 kts | 232° |
| 2026-05-06 02:18 | 33.81378 | -144.07683 | 38223 ft | 467 kts | 232° |
| 2026-05-06 02:19 | 33.77187 | -144.13660 | 38218 ft | 467 kts | 232° |
| 2026-05-06 02:19 | 33.72989 | -144.19638 | 38217 ft | 468 kts | 232° |
| 2026-05-06 02:20 | 33.66682 | -144.28600 | 38225 ft | 468 kts | 232° |
| 2026-05-06 02:21 | 33.62466 | -144.34579 | 38219 ft | 468 kts | 232° |
| 2026-05-06 02:21 | 33.58274 | -144.40513 | 38214 ft | 469 kts | 232° |
| 2026-05-06 02:22 | 33.54051 | -144.46481 | 38213 ft | 469 kts | 232° |
| 2026-05-06 02:22 | 33.49834 | -144.52432 | 38211 ft | 468 kts | 232° |
| 2026-05-06 02:23 | 33.45616 | -144.58373 | 38206 ft | 467 kts | 232° |
| 2026-05-06 02:23 | 33.41404 | -144.64296 | 38206 ft | 466 kts | 232° |
| 2026-05-06 02:24 | 33.37193 | -144.70209 | 38207 ft | 466 kts | 232° |
| 2026-05-06 02:24 | 33.32987 | -144.76105 | 38215 ft | 466 kts | 232° |
| 2026-05-06 02:25 | 33.28803 | -144.81961 | 38202 ft | 466 kts | 232° |
| 2026-05-06 02:25 | 33.24587 | -144.87852 | 38206 ft | 466 kts | 232° |
| 2026-05-06 02:26 | 33.20377 | -144.93725 | 38200 ft | 466 kts | 232° |
| 2026-05-06 02:26 | 33.16161 | -144.99597 | 38202 ft | 465 kts | 232° |
| 2026-05-06 02:27 | 33.11941 | -145.05464 | 38200 ft | 465 kts | 232° |
| 2026-05-06 02:27 | 33.07731 | -145.11308 | 38200 ft | 464 kts | 232° |
| 2026-05-06 02:28 | 33.03556 | -145.17095 | 38195 ft | 463 kts | 231° |
| 2026-05-06 02:28 | 32.99351 | -145.22914 | 38200 ft | 463 kts | 231° |
| 2026-05-06 02:29 | 32.95147 | -145.28723 | 38205 ft | 463 kts | 231° |
| 2026-05-06 02:29 | 32.90938 | -145.34528 | 38189 ft | 463 kts | 231° |
| 2026-05-06 02:30 | 32.86730 | -145.40324 | 38191 ft | 462 kts | 231° |
| 2026-05-06 02:30 | 32.82524 | -145.46108 | 38194 ft | 462 kts | 231° |
| 2026-05-06 02:31 | 32.78314 | -145.51887 | 38190 ft | 462 kts | 231° |
| 2026-05-06 02:31 | 32.74126 | -145.57628 | 38175 ft | 462 kts | 231° |
| 2026-05-06 02:32 | 32.69915 | -145.63390 | 38190 ft | 462 kts | 231° |
| 2026-05-06 02:32 | 32.65701 | -145.69150 | 38182 ft | 462 kts | 231° |
| 2026-05-06 02:33 | 32.61482 | -145.74905 | 38183 ft | 462 kts | 231° |
| 2026-05-06 02:33 | 32.60084 | -145.76810 | 38183 ft | 462 kts | 231° |
| 2026-05-06 02:34 | 32.53055 | -145.86376 | 38186 ft | 462 kts | 231° |
| 2026-05-06 02:34 | 32.48822 | -145.92124 | 38175 ft | 462 kts | 231° |
| 2026-05-06 02:35 | 32.44591 | -145.97860 | 38178 ft | 462 kts | 231° |
| 2026-05-06 02:35 | 32.40356 | -146.03593 | 38173 ft | 462 kts | 231° |
| 2026-05-06 02:36 | 32.36143 | -146.09287 | 38178 ft | 463 kts | 231° |
| 2026-05-06 02:36 | 32.31901 | -146.15012 | 38174 ft | 463 kts | 231° |
| 2026-05-06 02:37 | 32.27650 | -146.20739 | 38162 ft | 463 kts | 231° |
| 2026-05-06 02:37 | 32.23392 | -146.26469 | 38174 ft | 464 kts | 231° |
| 2026-05-06 02:38 | 32.19123 | -146.32204 | 38191 ft | 465 kts | 231° |
| 2026-05-06 02:38 | 32.14877 | -146.37898 | 38174 ft | 465 kts | 231° |
| 2026-05-06 02:39 | 32.10600 | -146.43625 | 38154 ft | 465 kts | 231° |
| 2026-05-06 02:39 | 32.06316 | -146.49354 | 38169 ft | 465 kts | 231° |
| 2026-05-06 02:40 | 32.02030 | -146.55075 | 38166 ft | 465 kts | 231° |
| 2026-05-06 02:40 | 31.97744 | -146.60788 | 38175 ft | 465 kts | 231° |
| 2026-05-06 02:41 | 31.93455 | -146.66497 | 38152 ft | 465 kts | 231° |
| 2026-05-06 02:41 | 31.89168 | -146.72194 | 38164 ft | 465 kts | 231° |
| 2026-05-06 02:42 | 31.84907 | -146.77849 | 38159 ft | 465 kts | 231° |
| 2026-05-06 02:42 | 31.80614 | -146.83536 | 38162 ft | 465 kts | 231° |
| 2026-05-06 02:43 | 31.76320 | -146.89217 | 38160 ft | 464 kts | 231° |
| 2026-05-06 02:43 | 31.72037 | -146.94874 | 38159 ft | 463 kts | 231° |
| 2026-05-06 02:44 | 31.67759 | -147.00515 | 38157 ft | 462 kts | 231° |
| 2026-05-06 02:44 | 31.63485 | -147.06145 | 38155 ft | 461 kts | 231° |
| 2026-05-06 02:45 | 31.59233 | -147.11736 | 38162 ft | 462 kts | 231° |
| 2026-05-06 02:45 | 31.54952 | -147.17358 | 38153 ft | 462 kts | 231° |
| 2026-05-06 02:46 | 31.50658 | -147.22988 | 38146 ft | 463 kts | 231° |
| 2026-05-06 02:46 | 31.46368 | -147.28603 | 38147 ft | 463 kts | 231° |
| 2026-05-06 02:47 | 31.42064 | -147.34229 | 38141 ft | 463 kts | 231° |
| 2026-05-06 02:47 | 31.37780 | -147.39822 | 38147 ft | 464 kts | 231° |
| 2026-05-06 02:48 | 31.33461 | -147.45450 | 38144 ft | 464 kts | 231° |
| 2026-05-06 02:48 | 31.29146 | -147.51065 | 38142 ft | 463 kts | 231° |
| 2026-05-06 02:49 | 31.24830 | -147.56673 | 38136 ft | 463 kts | 231° |
| 2026-05-06 02:49 | 31.20515 | -147.62272 | 38143 ft | 464 kts | 231° |
| 2026-05-06 02:50 | 31.16220 | -147.67837 | 38145 ft | 464 kts | 230° |
| 2026-05-06 02:50 | 31.11894 | -147.73433 | 38135 ft | 464 kts | 230° |
| 2026-05-06 02:50 | 31.09727 | -147.76233 | 38609 ft | 464 kts | 229° |
| 2026-05-06 02:51 | 31.07554 | -147.79040 | 38341 ft | 468 kts | 228° |
| 2026-05-06 02:51 | 31.05383 | -147.81839 | 37930 ft | 459 kts | 231° |
| 2026-05-06 02:51 | 31.03243 | -147.84595 | 38022 ft | 459 kts | 231° |
| 2026-05-06 02:52 | 30.98945 | -147.90135 | 38124 ft | 461 kts | 231° |
| 2026-05-06 02:52 | 30.94626 | -147.95692 | 38143 ft | 464 kts | 230° |
| 2026-05-06 02:53 | 30.90273 | -148.01282 | 38131 ft | 466 kts | 230° |
| 2026-05-06 02:53 | 30.85937 | -148.06842 | 38131 ft | 467 kts | 230° |
| 2026-05-06 02:54 | 30.81562 | -148.12445 | 38132 ft | 468 kts | 230° |
| 2026-05-06 02:54 | 30.77184 | -148.18042 | 38132 ft | 468 kts | 230° |
| 2026-05-06 02:55 | 30.72806 | -148.23631 | 38122 ft | 466 kts | 230° |
| 2026-05-06 02:55 | 30.68444 | -148.29191 | 38121 ft | 464 kts | 230° |
| 2026-05-06 02:56 | 30.64096 | -148.34727 | 38125 ft | 463 kts | 230° |
| 2026-05-06 02:56 | 30.59764 | -148.40235 | 38123 ft | 462 kts | 230° |
| 2026-05-06 02:57 | 30.55432 | -148.45735 | 38115 ft | 461 kts | 230° |
| 2026-05-06 02:57 | 30.51102 | -148.51223 | 38127 ft | 461 kts | 230° |
| 2026-05-06 02:58 | 30.46796 | -148.56675 | 38116 ft | 461 kts | 230° |
| 2026-05-06 02:58 | 30.42453 | -148.62166 | 38116 ft | 461 kts | 230° |
| 2026-05-06 02:59 | 30.38121 | -148.67634 | 38094 ft | 461 kts | 230° |
| 2026-05-06 02:59 | 30.33772 | -148.73117 | 38121 ft | 463 kts | 230° |
| 2026-05-06 03:00 | 30.29402 | -148.78619 | 38119 ft | 465 kts | 230° |
| 2026-05-06 03:00 | 30.25020 | -148.84128 | 38118 ft | 466 kts | 230° |
| 2026-05-06 03:01 | 30.20649 | -148.89613 | 38104 ft | 467 kts | 230° |
| 2026-05-06 03:01 | 30.16248 | -148.95129 | 38123 ft | 467 kts | 230° |
| 2026-05-06 03:02 | 30.11834 | -149.00656 | 38123 ft | 467 kts | 230° |
| 2026-05-06 03:02 | 30.07430 | -149.06163 | 38114 ft | 465 kts | 230° |
| 2026-05-06 03:02 | 30.05234 | -149.08904 | 38640 ft | 465 kts | 228° |
| 2026-05-06 03:03 | 30.03033 | -149.11652 | 37799 ft | 468 kts | 227° |
| 2026-05-06 03:03 | 30.00857 | -149.14363 | 37941 ft | 450 kts | 230° |
| 2026-05-06 03:03 | 29.98740 | -149.17000 | 38019 ft | 448 kts | 230° |
| 2026-05-06 03:04 | 29.94494 | -149.22295 | 38110 ft | 452 kts | 230° |
| 2026-05-06 03:04 | 29.90226 | -149.27614 | 38128 ft | 457 kts | 230° |
| 2026-05-06 03:05 | 29.85884 | -149.33016 | 38129 ft | 461 kts | 230° |
| 2026-05-06 03:05 | 29.81513 | -149.38442 | 38109 ft | 463 kts | 230° |
| 2026-05-06 03:06 | 29.77125 | -149.43882 | 38109 ft | 464 kts | 230° |
| 2026-05-06 03:06 | 29.72716 | -149.49341 | 38121 ft | 465 kts | 230° |
| 2026-05-06 03:07 | 29.68308 | -149.54791 | 38120 ft | 465 kts | 230° |
| 2026-05-06 03:07 | 29.63918 | -149.60212 | 38120 ft | 465 kts | 230° |
| 2026-05-06 03:08 | 29.59506 | -149.65651 | 38118 ft | 465 kts | 230° |
| 2026-05-06 03:08 | 29.55837 | -149.70170 | 38127 ft | 465 kts | 230° |
| 2026-05-06 03:09 | 29.51428 | -149.75593 | 38119 ft | 464 kts | 230° |
| 2026-05-06 03:09 | 29.47017 | -149.81012 | 38118 ft | 464 kts | 230° |
| 2026-05-06 03:10 | 29.42607 | -149.86421 | 38111 ft | 464 kts | 230° |
| 2026-05-06 03:10 | 29.38189 | -149.91833 | 38119 ft | 465 kts | 230° |
| 2026-05-06 03:11 | 29.33764 | -149.97246 | 38117 ft | 465 kts | 230° |
| 2026-05-06 03:11 | 29.29329 | -150.02664 | 38118 ft | 466 kts | 230° |
| 2026-05-06 03:12 | 29.24913 | -150.08052 | 38108 ft | 466 kts | 230° |
| 2026-05-06 03:12 | 29.20469 | -150.13466 | 38120 ft | 466 kts | 230° |
| 2026-05-06 03:13 | 29.16016 | -150.18883 | 38127 ft | 467 kts | 230° |
| 2026-05-06 03:13 | 29.11590 | -150.24261 | 38116 ft | 467 kts | 230° |
| 2026-05-06 03:14 | 29.07131 | -150.29671 | 38117 ft | 467 kts | 230° |
| 2026-05-06 03:14 | 29.02674 | -150.35072 | 38114 ft | 467 kts | 230° |
| 2026-05-06 03:15 | 28.98210 | -150.40474 | 38118 ft | 467 kts | 230° |
| 2026-05-06 03:15 | 28.93743 | -150.45872 | 38120 ft | 468 kts | 230° |
| 2026-05-06 03:16 | 28.89273 | -150.51267 | 38121 ft | 468 kts | 230° |
| 2026-05-06 03:16 | 28.84795 | -150.56664 | 38112 ft | 468 kts | 230° |
| 2026-05-06 03:17 | 28.80345 | -150.62020 | 38124 ft | 468 kts | 230° |
| 2026-05-06 03:17 | 28.75858 | -150.67413 | 38119 ft | 468 kts | 230° |
| 2026-05-06 03:18 | 28.71367 | -150.72804 | 38120 ft | 468 kts | 230° |
| 2026-05-06 03:18 | 28.66874 | -150.78191 | 38104 ft | 469 kts | 230° |
| 2026-05-06 03:19 | 28.62378 | -150.83573 | 38119 ft | 469 kts | 230° |
| 2026-05-06 03:19 | 28.57879 | -150.88953 | 38120 ft | 469 kts | 230° |
| 2026-05-06 03:20 | 28.51152 | -150.96984 | 38122 ft | 469 kts | 230° |
| 2026-05-06 03:20 | 28.46638 | -151.02362 | 38108 ft | 469 kts | 230° |
| 2026-05-06 03:21 | 28.42119 | -151.07740 | 38126 ft | 470 kts | 230° |
| 2026-05-06 03:21 | 28.37628 | -151.13079 | 38119 ft | 470 kts | 230° |
| 2026-05-06 03:22 | 28.33103 | -151.18450 | 38126 ft | 470 kts | 230° |
| 2026-05-06 03:22 | 28.28576 | -151.23816 | 38119 ft | 470 kts | 230° |
| 2026-05-06 03:23 | 28.24043 | -151.29182 | 38118 ft | 470 kts | 230° |
| 2026-05-06 03:23 | 28.19509 | -151.34543 | 38124 ft | 471 kts | 230° |
| 2026-05-06 03:24 | 28.14988 | -151.39881 | 38125 ft | 471 kts | 230° |
| 2026-05-06 03:24 | 28.10446 | -151.45237 | 38126 ft | 471 kts | 230° |
| 2026-05-06 03:25 | 28.05900 | -151.50591 | 38120 ft | 471 kts | 230° |
| 2026-05-06 03:25 | 28.01356 | -151.55935 | 38126 ft | 471 kts | 230° |
| 2026-05-06 03:26 | 27.96807 | -151.61278 | 38128 ft | 471 kts | 230° |
| 2026-05-06 03:26 | 27.92252 | -151.66622 | 38124 ft | 471 kts | 230° |
| 2026-05-06 03:27 | 27.87727 | -151.71924 | 38126 ft | 471 kts | 230° |
| 2026-05-06 03:27 | 27.83173 | -151.77253 | 38116 ft | 471 kts | 230° |
| 2026-05-06 03:28 | 27.78616 | -151.82579 | 38130 ft | 471 kts | 230° |
| 2026-05-06 03:28 | 27.74059 | -151.87897 | 38128 ft | 471 kts | 230° |
| 2026-05-06 03:29 | 27.69491 | -151.93221 | 38135 ft | 472 kts | 230° |
| 2026-05-06 03:29 | 27.64951 | -151.98506 | 38127 ft | 471 kts | 230° |
| 2026-05-06 03:30 | 27.60378 | -152.03822 | 38123 ft | 472 kts | 230° |
| 2026-05-06 03:30 | 27.55803 | -152.09135 | 38140 ft | 473 kts | 230° |
| 2026-05-06 03:31 | 27.51214 | -152.14456 | 38144 ft | 473 kts | 230° |
| 2026-05-06 03:31 | 27.46618 | -152.19780 | 38121 ft | 474 kts | 230° |
| 2026-05-06 03:32 | 27.42052 | -152.25061 | 38118 ft | 474 kts | 230° |
| 2026-05-06 03:32 | 27.37443 | -152.30385 | 38134 ft | 474 kts | 230° |
| 2026-05-06 03:33 | 27.32835 | -152.35702 | 38128 ft | 475 kts | 230° |
| 2026-05-06 03:33 | 27.28221 | -152.41019 | 38130 ft | 475 kts | 230° |
| 2026-05-06 03:34 | 27.23604 | -152.46331 | 38137 ft | 475 kts | 230° |
| 2026-05-06 03:34 | 27.18985 | -152.51641 | 38125 ft | 475 kts | 230° |
| 2026-05-06 03:35 | 27.14388 | -152.56918 | 38139 ft | 475 kts | 230° |
| 2026-05-06 03:35 | 27.09753 | -152.62233 | 38138 ft | 476 kts | 230° |
| 2026-05-06 03:36 | 27.05117 | -152.67541 | 38137 ft | 476 kts | 230° |
| 2026-05-06 03:36 | 27.00475 | -152.72849 | 38139 ft | 476 kts | 230° |
| 2026-05-06 03:37 | 26.95827 | -152.78159 | 38132 ft | 477 kts | 229° |
| 2026-05-06 03:37 | 26.91178 | -152.83462 | 38147 ft | 477 kts | 230° |
| 2026-05-06 03:38 | 26.86546 | -152.88740 | 38142 ft | 478 kts | 230° |
| 2026-05-06 03:38 | 26.81878 | -152.94052 | 38135 ft | 478 kts | 229° |
| 2026-05-06 03:39 | 26.77212 | -152.99354 | 38124 ft | 478 kts | 229° |
| 2026-05-06 03:39 | 26.72544 | -153.04653 | 38138 ft | 478 kts | 229° |
| 2026-05-06 03:40 | 26.67892 | -153.09926 | 38139 ft | 479 kts | 229° |
| 2026-05-06 03:40 | 26.63210 | -153.15228 | 38148 ft | 479 kts | 229° |
| 2026-05-06 03:41 | 26.58527 | -153.20524 | 38139 ft | 479 kts | 229° |
| 2026-05-06 03:41 | 26.53839 | -153.25819 | 38130 ft | 479 kts | 229° |
| 2026-05-06 03:42 | 26.49144 | -153.31115 | 38143 ft | 480 kts | 229° |
| 2026-05-06 03:42 | 26.44474 | -153.36378 | 38139 ft | 480 kts | 229° |
| 2026-05-06 03:43 | 26.39763 | -153.41679 | 38142 ft | 481 kts | 229° |
| 2026-05-06 03:43 | 26.35047 | -153.46979 | 38143 ft | 481 kts | 229° |
| 2026-05-06 03:44 | 26.30329 | -153.52276 | 38136 ft | 481 kts | 229° |
| 2026-05-06 03:44 | 26.25604 | -153.57572 | 38146 ft | 481 kts | 229° |
| 2026-05-06 03:45 | 26.20873 | -153.62870 | 38141 ft | 482 kts | 229° |
| 2026-05-06 03:45 | 26.16149 | -153.68154 | 38144 ft | 482 kts | 229° |
| 2026-05-06 03:46 | 26.11445 | -153.73409 | 38121 ft | 482 kts | 229° |
| 2026-05-06 03:46 | 26.06710 | -153.78692 | 38143 ft | 482 kts | 229° |
| 2026-05-06 03:47 | 26.01974 | -153.83970 | 38145 ft | 483 kts | 229° |
| 2026-05-06 03:47 | 25.97229 | -153.89251 | 38144 ft | 483 kts | 229° |
| 2026-05-06 03:48 | 25.92478 | -153.94533 | 38144 ft | 483 kts | 229° |
| 2026-05-06 03:48 | 25.87722 | -153.99813 | 38144 ft | 483 kts | 229° |
| 2026-05-06 03:49 | 25.82961 | -154.05093 | 38141 ft | 483 kts | 229° |
| 2026-05-06 03:49 | 25.78195 | -154.10372 | 38144 ft | 483 kts | 229° |
| 2026-05-06 03:50 | 25.75172 | -154.13718 | 38145 ft | 483 kts | 229° |
| 2026-05-06 03:50 | 25.70419 | -154.18971 | 38147 ft | 483 kts | 229° |
| 2026-05-06 03:51 | 25.65688 | -154.24196 | 38139 ft | 483 kts | 228° |
| 2026-05-06 03:51 | 25.60920 | -154.29454 | 38165 ft | 483 kts | 228° |
| 2026-05-06 03:52 | 25.56147 | -154.34712 | 38163 ft | 483 kts | 228° |
| 2026-05-06 03:52 | 25.51374 | -154.39963 | 38161 ft | 484 kts | 228° |
| 2026-05-06 03:53 | 25.46627 | -154.45181 | 38161 ft | 484 kts | 228° |
| 2026-05-06 03:53 | 25.41832 | -154.50443 | 38160 ft | 484 kts | 228° |
| 2026-05-06 03:54 | 25.37035 | -154.55703 | 38163 ft | 484 kts | 228° |
| 2026-05-06 03:54 | 25.32243 | -154.60950 | 38158 ft | 484 kts | 228° |
| 2026-05-06 03:55 | 25.27470 | -154.66170 | 38156 ft | 484 kts | 228° |
| 2026-05-06 03:55 | 25.22676 | -154.71408 | 38156 ft | 484 kts | 228° |
| 2026-05-06 03:56 | 25.17883 | -154.76638 | 38134 ft | 484 kts | 228° |
| 2026-05-06 03:56 | 25.13901 | -154.80978 | 38146 ft | 483 kts | 228° |
| 2026-05-06 03:57 | 25.09121 | -154.86183 | 38151 ft | 482 kts | 228° |
| 2026-05-06 03:57 | 25.04382 | -154.91337 | 38151 ft | 481 kts | 228° |
| 2026-05-06 03:58 | 24.99611 | -154.96521 | 38152 ft | 481 kts | 228° |
| 2026-05-06 03:58 | 24.97227 | -154.99109 | 38048 ft | 481 kts | 228° |
| 2026-05-06 03:58 | 24.94840 | -155.01700 | 38031 ft | 482 kts | 228° |
| 2026-05-06 03:59 | 24.90061 | -155.06880 | 38043 ft | 482 kts | 228° |
| 2026-05-06 03:59 | 24.85277 | -155.12059 | 38051 ft | 481 kts | 228° |
| 2026-05-06 04:00 | 24.80529 | -155.17195 | 38048 ft | 481 kts | 228° |
| 2026-05-06 04:00 | 24.75746 | -155.22364 | 38048 ft | 481 kts | 228° |
| 2026-05-06 04:01 | 24.71165 | -155.27714 | 38030 ft | 478 kts | 234° |
| 2026-05-06 04:01 | 24.67349 | -155.33670 | 38036 ft | 476 kts | 238° |
| 2026-05-06 04:02 | 24.63589 | -155.39674 | 38051 ft | 476 kts | 238° |
| 2026-05-06 04:02 | 24.59803 | -155.45661 | 38045 ft | 477 kts | 238° |
| 2026-05-06 04:03 | 24.56001 | -155.51636 | 38051 ft | 477 kts | 238° |
| 2026-05-06 04:03 | 24.52219 | -155.57567 | 38057 ft | 477 kts | 238° |
| 2026-05-06 04:04 | 24.48405 | -155.63543 | 38038 ft | 478 kts | 238° |
| 2026-05-06 04:04 | 24.44588 | -155.69517 | 38053 ft | 478 kts | 238° |
| 2026-05-06 04:05 | 24.40769 | -155.75489 | 38051 ft | 478 kts | 238° |
| 2026-05-06 04:05 | 24.36941 | -155.81468 | 38052 ft | 479 kts | 238° |
| 2026-05-06 04:06 | 24.33125 | -155.87419 | 38049 ft | 479 kts | 238° |
| 2026-05-06 04:06 | 24.29281 | -155.93408 | 38054 ft | 480 kts | 237° |
| 2026-05-06 04:07 | 24.25430 | -155.99400 | 38036 ft | 482 kts | 237° |
| 2026-05-06 04:07 | 24.21568 | -156.05401 | 38041 ft | 481 kts | 237° |
| 2026-05-06 04:08 | 24.18739 | -156.09793 | 38046 ft | 480 kts | 237° |
| 2026-05-06 04:08 | 24.14880 | -156.15780 | 38046 ft | 480 kts | 237° |
| 2026-05-06 04:09 | 24.11051 | -156.21713 | 38046 ft | 480 kts | 237° |
| 2026-05-06 04:09 | 24.07019 | -156.27516 | 38038 ft | 482 kts | 225° |
| 2026-05-06 04:10 | 24.04266 | -156.29637 | 38046 ft | 491 kts | 210° |
| 2026-05-06 04:10 | 24.01047 | -156.30964 | 38047 ft | 498 kts | 198° |
| 2026-05-06 04:10 | 23.97597 | -156.31517 | 38041 ft | 507 kts | 183° |
| 2026-05-06 04:10 | 23.94070 | -156.31244 | 38066 ft | 508 kts | 178° |
| 2026-05-06 04:11 | 23.87010 | -156.30400 | 38051 ft | 511 kts | 177° |
| 2026-05-06 04:11 | 23.79921 | -156.29579 | 38051 ft | 513 kts | 178° |
| 2026-05-06 04:12 | 23.72858 | -156.28842 | 38049 ft | 513 kts | 178° |
| 2026-05-06 04:12 | 23.65745 | -156.28138 | 38045 ft | 511 kts | 179° |
| 2026-05-06 04:13 | 23.58668 | -156.27445 | 38045 ft | 510 kts | 179° |
| 2026-05-06 04:13 | 23.51598 | -156.26748 | 38046 ft | 508 kts | 179° |
| 2026-05-06 04:14 | 23.44549 | -156.26051 | 38046 ft | 507 kts | 179° |
| 2026-05-06 04:14 | 23.37549 | -156.25359 | 38050 ft | 507 kts | 179° |
| 2026-05-06 04:15 | 23.30518 | -156.24663 | 38055 ft | 507 kts | 179° |
| 2026-05-06 04:15 | 23.23495 | -156.23970 | 38051 ft | 506 kts | 179° |
| 2026-05-06 04:16 | 23.16481 | -156.23281 | 38052 ft | 506 kts | 179° |
| 2026-05-06 04:16 | 23.09469 | -156.22591 | 38043 ft | 505 kts | 179° |
| 2026-05-06 04:17 | 23.02515 | -156.21908 | 38050 ft | 504 kts | 179° |
| 2026-05-06 04:17 | 22.95525 | -156.21221 | 38051 ft | 504 kts | 179° |
| 2026-05-06 04:18 | 22.88527 | -156.20535 | 38051 ft | 504 kts | 179° |
| 2026-05-06 04:18 | 22.81530 | -156.19850 | 38034 ft | 504 kts | 179° |
| 2026-05-06 04:19 | 22.74539 | -156.19165 | 38037 ft | 504 kts | 179° |
| 2026-05-06 04:19 | 22.67600 | -156.18486 | 38052 ft | 503 kts | 179° |
| 2026-05-06 04:20 | 22.60620 | -156.17805 | 38047 ft | 503 kts | 179° |
| 2026-05-06 04:20 | 22.53636 | -156.17123 | 38047 ft | 503 kts | 179° |
| 2026-05-06 04:21 | 22.46659 | -156.16443 | 38052 ft | 503 kts | 180° |
| 2026-05-06 04:21 | 22.39677 | -156.15763 | 38048 ft | 503 kts | 180° |
| 2026-05-06 04:22 | 22.32700 | -156.15084 | 38050 ft | 503 kts | 180° |
| 2026-05-06 04:23 | 22.22271 | -156.14070 | 38049 ft | 504 kts | 180° |
| 2026-05-06 04:23 | 22.15278 | -156.13391 | 38048 ft | 503 kts | 180° |
| 2026-05-06 04:24 | 22.08361 | -156.12716 | 38033 ft | 487 kts | 180° |
| 2026-05-06 04:24 | 22.05057 | -156.12387 | 37967 ft | 461 kts | 180° |
| 2026-05-06 04:24 | 22.01956 | -156.12075 | 37506 ft | 437 kts | 180° |
| 2026-05-06 04:24 | 21.98956 | -156.11781 | 37100 ft | 431 kts | 180° |
| 2026-05-06 04:25 | 21.95948 | -156.11498 | 36689 ft | 439 kts | 180° |
| 2026-05-06 04:25 | 21.92885 | -156.11217 | 36269 ft | 457 kts | 180° |
| 2026-05-06 04:25 | 21.89654 | -156.10920 | 35801 ft | 471 kts | 180° |
| 2026-05-06 04:25 | 21.86382 | -156.10609 | 35307 ft | 471 kts | 180° |
| 2026-05-06 04:26 | 21.83130 | -156.10292 | 34812 ft | 467 kts | 180° |
| 2026-05-06 04:26 | 21.79891 | -156.09974 | 34310 ft | 465 kts | 179° |
| 2026-05-06 04:26 | 21.76661 | -156.09658 | 33676 ft | 468 kts | 179° |
| 2026-05-06 04:26 | 21.73387 | -156.09342 | 33129 ft | 472 kts | 179° |
| 2026-05-06 04:27 | 21.70113 | -156.09026 | 32732 ft | 472 kts | 179° |
| 2026-05-06 04:27 | 21.66854 | -156.08711 | 32466 ft | 469 kts | 179° |
| 2026-05-06 04:27 | 21.63614 | -156.08397 | 32233 ft | 465 kts | 179° |
| 2026-05-06 04:27 | 21.60439 | -156.08090 | 31962 ft | 463 kts | 179° |
| 2026-05-06 04:28 | 21.57235 | -156.07781 | 31664 ft | 460 kts | 179° |
| 2026-05-06 04:28 | 21.54051 | -156.07474 | 31182 ft | 456 kts | 179° |
| 2026-05-06 04:28 | 21.50888 | -156.07170 | 30680 ft | 454 kts | 179° |
| 2026-05-06 04:28 | 21.47746 | -156.06868 | 30189 ft | 451 kts | 179° |
| 2026-05-06 04:29 | 21.44657 | -156.06572 | 29577 ft | 450 kts | 179° |
| 2026-05-06 04:29 | 21.41548 | -156.06274 | 28965 ft | 448 kts | 179° |
| 2026-05-06 04:29 | 21.38446 | -156.05977 | 28374 ft | 446 kts | 179° |
| 2026-05-06 04:29 | 21.35351 | -156.05680 | 27800 ft | 445 kts | 179° |
| 2026-05-06 04:30 | 21.32279 | -156.05385 | 27235 ft | 443 kts | 179° |
| 2026-05-06 04:30 | 21.29211 | -156.05091 | 26670 ft | 441 kts | 178° |
| 2026-05-06 04:30 | 21.26148 | -156.04798 | 26106 ft | 439 kts | 178° |
| 2026-05-06 04:30 | 21.23103 | -156.04506 | 25560 ft | 438 kts | 178° |
| 2026-05-06 04:31 | 21.20071 | -156.04216 | 24995 ft | 437 kts | 178° |
| 2026-05-06 04:31 | 21.17082 | -156.03930 | 24455 ft | 436 kts | 178° |
| 2026-05-06 04:31 | 21.14050 | -156.03641 | 23894 ft | 436 kts | 178° |
| 2026-05-06 04:31 | 21.11036 | -156.03353 | 23285 ft | 435 kts | 178° |
| 2026-05-06 04:32 | 21.08020 | -156.03064 | 22682 ft | 433 kts | 178° |
| 2026-05-06 04:32 | 21.05030 | -156.02778 | 22124 ft | 430 kts | 178° |
| 2026-05-06 04:32 | 21.02054 | -156.02493 | 21591 ft | 427 kts | 178° |
| 2026-05-06 04:32 | 20.99096 | -156.02211 | 21042 ft | 424 kts | 177° |
| 2026-05-06 04:33 | 20.96162 | -156.01931 | 20523 ft | 422 kts | 177° |
| 2026-05-06 04:33 | 20.93252 | -156.01653 | 20014 ft | 419 kts | 177° |
| 2026-05-06 04:33 | 20.90481 | -156.01387 | 19495 ft | 391 kts | 177° |
| 2026-05-06 04:33 | 20.87859 | -156.01133 | 19029 ft | 366 kts | 177° |
| 2026-05-06 04:34 | 20.85351 | -156.00979 | 18613 ft | 359 kts | 182° |
| 2026-05-06 04:34 | 20.82849 | -156.01042 | 18141 ft | 360 kts | 184° |
| 2026-05-06 04:34 | 20.80339 | -156.01137 | 17649 ft | 362 kts | 184° |
| 2026-05-06 04:34 | 20.77811 | -156.01234 | 17722 ft | 363 kts | 183° |
| 2026-05-06 04:35 | 20.75279 | -156.01323 | 17165 ft | 364 kts | 182° |
| 2026-05-06 04:35 | 20.72771 | -156.01408 | 16180 ft | 364 kts | 184° |
| 2026-05-06 04:35 | 20.70246 | -156.01486 | 15737 ft | 362 kts | 184° |
| 2026-05-06 04:35 | 20.67737 | -156.01560 | 15294 ft | 360 kts | 184° |
| 2026-05-06 04:36 | 20.65230 | -156.01635 | 14831 ft | 360 kts | 184° |
| 2026-05-06 04:36 | 20.62778 | -156.01708 | 14535 ft | 338 kts | 185° |
| 2026-05-06 04:36 | 20.60500 | -156.01776 | 14245 ft | 324 kts | 184° |
| 2026-05-06 04:36 | 20.58252 | -156.01843 | 13852 ft | 318 kts | 184° |
| 2026-05-06 04:37 | 20.56092 | -156.01907 | 13413 ft | 302 kts | 184° |
| 2026-05-06 04:37 | 20.54047 | -156.01969 | 13027 ft | 287 kts | 184° |
| 2026-05-06 04:37 | 20.52101 | -156.02028 | 12668 ft | 273 kts | 184° |
| 2026-05-06 04:37 | 20.50224 | -156.02087 | 12338 ft | 266 kts | 184° |
| 2026-05-06 04:38 | 20.48365 | -156.02146 | 12024 ft | 271 kts | 183° |
| 2026-05-06 04:38 | 20.46419 | -156.02209 | 11692 ft | 288 kts | 183° |
| 2026-05-06 04:38 | 20.44402 | -156.02273 | 11322 ft | 297 kts | 183° |
| 2026-05-06 04:38 | 20.42315 | -156.02338 | 10934 ft | 299 kts | 182° |
| 2026-05-06 04:39 | 20.40237 | -156.02400 | 10600 ft | 297 kts | 182° |
| 2026-05-06 04:39 | 20.38201 | -156.02461 | 10340 ft | 290 kts | 182° |
| 2026-05-06 04:39 | 20.36256 | -156.02520 | 10044 ft | 266 kts | 182° |
| 2026-05-06 04:39 | 20.34423 | -156.02576 | 9773 ft | 265 kts | 182° |
| 2026-05-06 04:40 | 20.32555 | -156.02633 | 9463 ft | 271 kts | 182° |
| 2026-05-06 04:40 | 20.30657 | -156.02692 | 9120 ft | 276 kts | 182° |
| 2026-05-06 04:40 | 20.28765 | -156.02750 | 8791 ft | 275 kts | 183° |
| 2026-05-06 04:40 | 20.26858 | -156.02808 | 8455 ft | 273 kts | 183° |
| 2026-05-06 04:41 | 20.24962 | -156.02866 | 8126 ft | 271 kts | 183° |
| 2026-05-06 04:41 | 20.23080 | -156.02924 | 7795 ft | 270 kts | 183° |
| 2026-05-06 04:41 | 20.21205 | -156.02981 | 7471 ft | 269 kts | 184° |
| 2026-05-06 04:41 | 20.19335 | -156.03038 | 7126 ft | 269 kts | 183° |
| 2026-05-06 04:42 | 20.17441 | -156.03097 | 6631 ft | 275 kts | 183° |
| 2026-05-06 04:42 | 20.15518 | -156.03157 | 6244 ft | 277 kts | 185° |
| 2026-05-06 04:42 | 20.13592 | -156.03215 | 5899 ft | 277 kts | 184° |
| 2026-05-06 04:42 | 20.11670 | -156.03274 | 5548 ft | 276 kts | 183° |
| 2026-05-06 04:43 | 20.09759 | -156.03333 | 5212 ft | 270 kts | 184° |
| 2026-05-06 04:43 | 20.07935 | -156.03344 | 4887 ft | 255 kts | 180° |
| 2026-05-06 04:43 | 20.06200 | -156.03292 | 4574 ft | 253 kts | 179° |
| 2026-05-06 04:43 | 20.04395 | -156.03231 | 4294 ft | 264 kts | 179° |
| 2026-05-06 04:44 | 20.02558 | -156.03170 | 3970 ft | 262 kts | 179° |
| 2026-05-06 04:44 | 20.00740 | -156.03113 | 3654 ft | 260 kts | 179° |
| 2026-05-06 04:44 | 19.98938 | -156.03060 | 3436 ft | 254 kts | 179° |
| 2026-05-06 04:44 | 19.97795 | -156.03027 | 3388 ft | 241 kts | 178° |
| 2026-05-06 04:45 | 19.96176 | -156.02981 | 3240 ft | 227 kts | 178° |
| 2026-05-06 04:45 | 19.94591 | -156.02936 | 3136 ft | 228 kts | 179° |
| 2026-05-06 04:45 | 19.92503 | -156.02883 | 2986 ft | 228 kts | 180° |
| 2026-05-06 04:45 | 19.91452 | -156.02939 | 2890 ft | 220 kts | 185° |
| 2026-05-06 04:46 | 19.89947 | -156.03105 | 2617 ft | 210 kts | 186° |
| 2026-05-06 04:46 | 19.88584 | -156.03246 | 2372 ft | 191 kts | 185° |
| 2026-05-06 04:46 | 19.87301 | -156.03364 | 2180 ft | 182 kts | 184° |
| 2026-05-06 04:46 | 19.86047 | -156.03477 | 2009 ft | 178 kts | 184° |
| 2026-05-06 04:47 | 19.84858 | -156.03583 | 1775 ft | 167 kts | 184° |
| 2026-05-06 04:47 | 19.83723 | -156.03684 | 1515 ft | 161 kts | 184° |
| 2026-05-06 04:47 | 19.82587 | -156.03785 | 1468 ft | 167 kts | 184° |
| 2026-05-06 04:47 | 19.81426 | -156.03890 | 1228 ft | 162 kts | 183° |
| 2026-05-06 04:48 | 19.80361 | -156.03985 | 1016 ft | 147 kts | 183° |
| 2026-05-06 04:48 | 19.79363 | -156.04080 | 824 ft | 145 kts | 184° |
| 2026-05-06 04:48 | 19.78325 | -156.04180 | 705 ft | 157 kts | 184° |
| 2026-05-06 04:48 | 19.77244 | -156.04268 | 493 ft | 147 kts | 186° |
| 2026-05-06 04:49 | 19.76273 | -156.04356 | 241 ft | 139 kts | 185° |
| 2026-05-06 04:49 | 19.75323 | -156.04437 | 52 ft | 134 kts | 186° |
| 2026-05-06 04:49 | 19.74477 | -156.04511 | 17 ft | 103 kts | 186° |
| 2026-05-06 04:49 | 19.73845 | -156.04572 | 17 ft | 85 kts | 185° |
| 2026-05-06 04:50 | 19.73299 | -156.04619 | 49 ft | 73 kts | 185° |
| 2026-05-06 04:50 | 19.72941 | -156.04648 | 50 ft | 38 kts | 180° |
| 2026-05-06 04:50 | 19.72736 | -156.04588 | 50 ft | 22 kts | 155° |
| 2026-05-06 04:50 | 19.72663 | -156.04519 | 50 ft | 14 kts | 111° |
| 2026-05-06 04:51 | 19.72659 | -156.04505 | 50 ft | 0 kts | 105° |
| 2026-05-06 04:51 | 19.72654 | -156.04461 | 50 ft | 12 kts | 84° |
| 2026-05-06 04:52 | 19.72724 | -156.04416 | 51 ft | 13 kts | 9° |
| 2026-05-06 04:52 | 19.72809 | -156.04408 | 51 ft | 13 kts | 4° |
| 2026-05-06 04:52 | 19.72896 | -156.04401 | 49 ft | 13 kts | 4° |
| 2026-05-06 04:52 | 19.72983 | -156.04393 | 50 ft | 13 kts | 6° |
| 2026-05-06 04:53 | 19.73070 | -156.04383 | 50 ft | 13 kts | 5° |
| 2026-05-06 04:53 | 19.73156 | -156.04375 | 49 ft | 13 kts | 5° |
| 2026-05-06 04:53 | 19.73243 | -156.04367 | 48 ft | 13 kts | 4° |
| 2026-05-06 04:53 | 19.73330 | -156.04360 | 46 ft | 13 kts | 4° |
| 2026-05-06 04:54 | 19.73420 | -156.04353 | 49 ft | 13 kts | 4° |
| 2026-05-06 04:54 | 19.73512 | -156.04345 | 50 ft | 13 kts | 5° |
| 2026-05-06 04:54 | 19.73605 | -156.04336 | 49 ft | 13 kts | 5° |
| 2026-05-06 04:54 | 19.73698 | -156.04327 | 48 ft | 13 kts | 5° |
| 2026-05-06 04:55 | 19.73776 | -156.04319 | 47 ft | 10 kts | 5° |
| 2026-05-06 04:55 | 19.73836 | -156.04301 | 44 ft | 9 kts | 50° |
| 2026-05-06 04:55 | 19.73851 | -156.04237 | 47 ft | 9 kts | 89° |
| 2026-05-06 04:55 | 19.73845 | -156.04182 | 50 ft | 7 kts | 109° |
| 2026-05-06 04:56 | 19.73807 | -156.04157 | 46 ft | 6 kts | 167° |
| 2026-05-06 04:56 | 19.73794 | -156.04155 | 46 ft | 1 kts | 173° |
| 2026-05-06 04:56 | 19.73793 | -156.04155 | 47 ft | 0 kts | 173° |